sensor_id;sensor_type;location;lat;lon;timestamp;P1;durP1;ratioP1;P2;durP2;ratioP2
9807;SDS011;4943;52.550;13.462;2023-05-07T00:01:24;284.20;;;93.60;;
9807;SDS011;4943;52.550;13.462;2023-05-07T00:03:52;282.00;;;96.33;;
9807;SDS011;4943;52.550;13.462;2023-05-07T00:06:20;277.40;;;94.13;;
9807;SDS011;4943;52.550;13.462;2023-05-07T00:08:48;279.90;;;93.10;;
9807;SDS011;4943;52.550;13.462;2023-05-07T00:11:16;280.57;;;93.33;;
9807;SDS011;4943;52.550;13.462;2023-05-07T00:13:46;280.20;;;95.93;;
9807;SDS011;4943;52.550;13.462;2023-05-07T00:16:15;278.73;;;94.53;;
9807;SDS011;4943;52.550;13.462;2023-05-07T00:18:43;279.27;;;93.07;;
9807;SDS011;4943;52.550;13.462;2023-05-07T00:21:11;286.87;;;95.47;;
9807;SDS011;4943;52.550;13.462;2023-05-07T00:23:39;279.47;;;96.07;;
9807;SDS011;4943;52.550;13.462;2023-05-07T00:26:07;279.20;;;94.13;;
9807;SDS011;4943;52.550;13.462;2023-05-07T00:28:35;281.03;;;91.70;;
9807;SDS011;4943;52.550;13.462;2023-05-07T00:31:04;283.60;;;94.20;;
9807;SDS011;4943;52.550;13.462;2023-05-07T00:33:32;284.17;;;97.63;;
9807;SDS011;4943;52.550;13.462;2023-05-07T00:36:00;281.47;;;96.10;;
9807;SDS011;4943;52.550;13.462;2023-05-07T00:38:28;282.63;;;94.90;;
9807;SDS011;4943;52.550;13.462;2023-05-07T00:40:56;279.93;;;93.97;;
9807;SDS011;4943;52.550;13.462;2023-05-07T00:43:24;278.77;;;93.63;;
9807;SDS011;4943;52.550;13.462;2023-05-07T00:45:53;283.00;;;95.30;;
9807;SDS011;4943;52.550;13.462;2023-05-07T00:48:23;278.47;;;95.67;;
9807;SDS011;4943;52.550;13.462;2023-05-07T00:50:52;279.33;;;94.87;;
9807;SDS011;4943;52.550;13.462;2023-05-07T00:53:20;279.57;;;95.37;;
9807;SDS011;4943;52.550;13.462;2023-05-07T00:55:48;282.37;;;94.67;;
9807;SDS011;4943;52.550;13.462;2023-05-07T00:58:16;283.03;;;97.57;;
9807;SDS011;4943;52.550;13.462;2023-05-07T01:00:44;279.27;;;94.93;;
9807;SDS011;4943;52.550;13.462;2023-05-07T01:03:13;282.00;;;94.73;;
9807;SDS011;4943;52.550;13.462;2023-05-07T01:05:43;280.67;;;96.00;;
9807;SDS011;4943;52.550;13.462;2023-05-07T01:08:13;277.40;;;93.37;;
9807;SDS011;4943;52.550;13.462;2023-05-07T01:10:42;279.10;;;96.37;;
9807;SDS011;4943;52.550;13.462;2023-05-07T01:13:11;279.57;;;95.73;;
9807;SDS011;4943;52.550;13.462;2023-05-07T01:15:41;281.37;;;94.33;;
9807;SDS011;4943;52.550;13.462;2023-05-07T01:18:10;279.57;;;94.33;;
9807;SDS011;4943;52.550;13.462;2023-05-07T01:20:38;279.40;;;95.40;;
9807;SDS011;4943;52.550;13.462;2023-05-07T01:23:08;282.03;;;94.10;;
9807;SDS011;4943;52.550;13.462;2023-05-07T01:25:38;282.03;;;97.07;;
9807;SDS011;4943;52.550;13.462;2023-05-07T01:28:06;279.60;;;98.10;;
9807;SDS011;4943;52.550;13.462;2023-05-07T01:30:34;279.47;;;95.20;;
9807;SDS011;4943;52.550;13.462;2023-05-07T01:33:05;277.33;;;94.67;;
9807;SDS011;4943;52.550;13.462;2023-05-07T01:35:38;280.70;;;94.73;;
9807;SDS011;4943;52.550;13.462;2023-05-07T01:38:09;279.57;;;95.73;;
9807;SDS011;4943;52.550;13.462;2023-05-07T01:40:37;278.67;;;96.97;;
9807;SDS011;4943;52.550;13.462;2023-05-07T01:43:05;278.40;;;94.50;;
9807;SDS011;4943;52.550;13.462;2023-05-07T01:45:34;280.47;;;93.83;;
9807;SDS011;4943;52.550;13.462;2023-05-07T01:48:03;280.70;;;94.67;;
9807;SDS011;4943;52.550;13.462;2023-05-07T01:50:31;281.50;;;95.70;;
9807;SDS011;4943;52.550;13.462;2023-05-07T01:53:00;277.90;;;94.43;;
9807;SDS011;4943;52.550;13.462;2023-05-07T01:55:30;279.60;;;94.53;;
9807;SDS011;4943;52.550;13.462;2023-05-07T01:57:58;280.50;;;96.83;;
9807;SDS011;4943;52.550;13.462;2023-05-07T02:00:26;279.93;;;95.20;;
9807;SDS011;4943;52.550;13.462;2023-05-07T02:02:55;277.33;;;91.33;;
9807;SDS011;4943;52.550;13.462;2023-05-07T02:05:23;280.97;;;94.20;;
9807;SDS011;4943;52.550;13.462;2023-05-07T02:07:51;278.07;;;93.77;;
9807;SDS011;4943;52.550;13.462;2023-05-07T02:10:19;279.93;;;96.13;;
9807;SDS011;4943;52.550;13.462;2023-05-07T02:12:48;280.93;;;96.50;;
9807;SDS011;4943;52.550;13.462;2023-05-07T02:15:16;278.47;;;93.93;;
9807;SDS011;4943;52.550;13.462;2023-05-07T02:17:57;278.77;;;93.83;;
9807;SDS011;4943;52.550;13.462;2023-05-07T02:20:27;277.33;;;93.50;;
9807;SDS011;4943;52.550;13.462;2023-05-07T02:22:55;278.70;;;93.80;;
9807;SDS011;4943;52.550;13.462;2023-05-07T02:25:23;277.87;;;92.60;;
9807;SDS011;4943;52.550;13.462;2023-05-07T02:27:53;278.13;;;94.57;;
9807;SDS011;4943;52.550;13.462;2023-05-07T02:30:21;279.77;;;96.00;;
9807;SDS011;4943;52.550;13.462;2023-05-07T02:32:49;277.37;;;92.43;;
9807;SDS011;4943;52.550;13.462;2023-05-07T02:35:17;281.30;;;94.60;;
9807;SDS011;4943;52.550;13.462;2023-05-07T02:37:45;282.47;;;96.07;;
9807;SDS011;4943;52.550;13.462;2023-05-07T02:40:13;284.80;;;94.33;;
9807;SDS011;4943;52.550;13.462;2023-05-07T02:42:41;278.23;;;93.90;;
9807;SDS011;4943;52.550;13.462;2023-05-07T02:45:11;281.47;;;94.73;;
9807;SDS011;4943;52.550;13.462;2023-05-07T02:47:39;280.77;;;94.70;;
9807;SDS011;4943;52.550;13.462;2023-05-07T02:50:07;278.23;;;93.83;;
9807;SDS011;4943;52.550;13.462;2023-05-07T02:52:35;278.87;;;93.80;;
9807;SDS011;4943;52.550;13.462;2023-05-07T02:55:04;279.40;;;94.70;;
9807;SDS011;4943;52.550;13.462;2023-05-07T02:57:33;282.73;;;98.70;;
9807;SDS011;4943;52.550;13.462;2023-05-07T03:00:11;285.30;;;95.43;;
9807;SDS011;4943;52.550;13.462;2023-05-07T03:02:40;279.97;;;97.10;;
9807;SDS011;4943;52.550;13.462;2023-05-07T03:05:08;279.07;;;94.23;;
9807;SDS011;4943;52.550;13.462;2023-05-07T03:07:37;278.43;;;95.77;;
9807;SDS011;4943;52.550;13.462;2023-05-07T03:10:05;279.97;;;97.83;;
9807;SDS011;4943;52.550;13.462;2023-05-07T03:12:34;281.60;;;97.00;;
9807;SDS011;4943;52.550;13.462;2023-05-07T03:15:02;278.30;;;94.00;;
9807;SDS011;4943;52.550;13.462;2023-05-07T03:17:31;277.87;;;92.30;;
9807;SDS011;4943;52.550;13.462;2023-05-07T03:19:59;278.77;;;94.97;;
9807;SDS011;4943;52.550;13.462;2023-05-07T03:22:28;277.20;;;93.03;;
9807;SDS011;4943;52.550;13.462;2023-05-07T03:24:56;277.37;;;92.20;;
9807;SDS011;4943;52.550;13.462;2023-05-07T03:27:24;277.67;;;96.43;;
9807;SDS011;4943;52.550;13.462;2023-05-07T03:29:52;277.73;;;92.87;;
9807;SDS011;4943;52.550;13.462;2023-05-07T03:32:19;278.20;;;93.30;;
9807;SDS011;4943;52.550;13.462;2023-05-07T03:34:49;276.10;;;92.50;;
9807;SDS011;4943;52.550;13.462;2023-05-07T03:37:17;277.57;;;93.27;;
9807;SDS011;4943;52.550;13.462;2023-05-07T03:39:45;276.30;;;92.97;;
9807;SDS011;4943;52.550;13.462;2023-05-07T03:42:13;278.90;;;93.20;;
9807;SDS011;4943;52.550;13.462;2023-05-07T03:44:43;276.53;;;92.07;;
9807;SDS011;4943;52.550;13.462;2023-05-07T03:47:11;276.37;;;94.17;;
9807;SDS011;4943;52.550;13.462;2023-05-07T03:49:39;278.57;;;95.97;;
9807;SDS011;4943;52.550;13.462;2023-05-07T03:52:08;279.80;;;93.40;;
9807;SDS011;4943;52.550;13.462;2023-05-07T03:54:36;274.03;;;89.30;;
9807;SDS011;4943;52.550;13.462;2023-05-07T03:57:04;279.07;;;94.97;;
9807;SDS011;4943;52.550;13.462;2023-05-07T03:59:32;279.93;;;92.87;;
9807;SDS011;4943;52.550;13.462;2023-05-07T04:02:00;275.17;;;92.80;;
9807;SDS011;4943;52.550;13.462;2023-05-07T04:04:31;276.23;;;92.10;;
9807;SDS011;4943;52.550;13.462;2023-05-07T04:06:59;275.47;;;91.70;;
9807;SDS011;4943;52.550;13.462;2023-05-07T04:09:29;275.77;;;92.30;;
9807;SDS011;4943;52.550;13.462;2023-05-07T04:11:57;276.70;;;92.20;;
9807;SDS011;4943;52.550;13.462;2023-05-07T04:14:25;274.67;;;90.33;;
9807;SDS011;4943;52.550;13.462;2023-05-07T04:16:52;273.83;;;88.70;;
9807;SDS011;4943;52.550;13.462;2023-05-07T04:19:21;275.23;;;91.47;;
9807;SDS011;4943;52.550;13.462;2023-05-07T04:21:49;277.73;;;93.87;;
9807;SDS011;4943;52.550;13.462;2023-05-07T04:24:17;275.97;;;92.77;;
9807;SDS011;4943;52.550;13.462;2023-05-07T04:26:46;277.23;;;95.00;;
9807;SDS011;4943;52.550;13.462;2023-05-07T04:29:14;276.40;;;95.37;;
9807;SDS011;4943;52.550;13.462;2023-05-07T04:31:42;280.73;;;98.40;;
9807;SDS011;4943;52.550;13.462;2023-05-07T04:34:11;277.20;;;94.33;;
9807;SDS011;4943;52.550;13.462;2023-05-07T04:36:39;277.97;;;97.90;;
9807;SDS011;4943;52.550;13.462;2023-05-07T04:39:07;279.53;;;94.03;;
9807;SDS011;4943;52.550;13.462;2023-05-07T04:41:36;276.93;;;93.77;;
9807;SDS011;4943;52.550;13.462;2023-05-07T04:44:06;281.93;;;98.37;;
9807;SDS011;4943;52.550;13.462;2023-05-07T04:46:35;278.47;;;95.37;;
9807;SDS011;4943;52.550;13.462;2023-05-07T04:49:03;277.43;;;93.23;;
9807;SDS011;4943;52.550;13.462;2023-05-07T04:51:31;279.10;;;95.40;;
9807;SDS011;4943;52.550;13.462;2023-05-07T04:53:59;278.37;;;97.23;;
9807;SDS011;4943;52.550;13.462;2023-05-07T04:56:28;280.13;;;95.87;;
9807;SDS011;4943;52.550;13.462;2023-05-07T04:58:56;278.40;;;94.67;;
9807;SDS011;4943;52.550;13.462;2023-05-07T05:01:25;280.37;;;97.87;;
9807;SDS011;4943;52.550;13.462;2023-05-07T05:03:53;279.97;;;98.53;;
9807;SDS011;4943;52.550;13.462;2023-05-07T05:06:21;277.47;;;94.47;;
9807;SDS011;4943;52.550;13.462;2023-05-07T05:08:49;281.73;;;98.33;;
9807;SDS011;4943;52.550;13.462;2023-05-07T05:11:17;282.27;;;97.67;;
9807;SDS011;4943;52.550;13.462;2023-05-07T05:13:46;283.17;;;98.57;;
9807;SDS011;4943;52.550;13.462;2023-05-07T05:16:16;281.53;;;98.87;;
9807;SDS011;4943;52.550;13.462;2023-05-07T05:18:45;282.27;;;99.60;;
9807;SDS011;4943;52.550;13.462;2023-05-07T05:21:13;282.83;;;101.57;;
9807;SDS011;4943;52.550;13.462;2023-05-07T05:23:41;285.13;;;100.63;;
9807;SDS011;4943;52.550;13.462;2023-05-07T05:26:09;283.07;;;99.60;;
9807;SDS011;4943;52.550;13.462;2023-05-07T05:28:37;284.20;;;100.70;;
9807;SDS011;4943;52.550;13.462;2023-05-07T05:31:05;285.87;;;103.63;;
9807;SDS011;4943;52.550;13.462;2023-05-07T05:33:33;286.47;;;101.83;;
9807;SDS011;4943;52.550;13.462;2023-05-07T05:36:03;288.77;;;107.43;;
9807;SDS011;4943;52.550;13.462;2023-05-07T05:38:31;290.60;;;108.43;;
9807;SDS011;4943;52.550;13.462;2023-05-07T05:41:00;295.00;;;112.67;;
9807;SDS011;4943;52.550;13.462;2023-05-07T05:43:28;291.90;;;109.23;;
9807;SDS011;4943;52.550;13.462;2023-05-07T05:45:56;299.23;;;112.57;;
9807;SDS011;4943;52.550;13.462;2023-05-07T05:48:24;293.67;;;112.90;;
9807;SDS011;4943;52.550;13.462;2023-05-07T05:50:52;289.03;;;109.57;;
9807;SDS011;4943;52.550;13.462;2023-05-07T05:53:22;293.07;;;112.37;;
9807;SDS011;4943;52.550;13.462;2023-05-07T05:55:50;293.67;;;116.80;;
9807;SDS011;4943;52.550;13.462;2023-05-07T05:58:18;299.10;;;116.10;;
9807;SDS011;4943;52.550;13.462;2023-05-07T06:00:46;291.57;;;114.93;;
9807;SDS011;4943;52.550;13.462;2023-05-07T06:03:14;292.50;;;115.80;;
9807;SDS011;4943;52.550;13.462;2023-05-07T06:05:42;297.97;;;118.17;;
9807;SDS011;4943;52.550;13.462;2023-05-07T06:08:10;298.50;;;122.73;;
9807;SDS011;4943;52.550;13.462;2023-05-07T06:10:40;297.80;;;121.27;;
9807;SDS011;4943;52.550;13.462;2023-05-07T06:13:08;302.97;;;118.70;;
9807;SDS011;4943;52.550;13.462;2023-05-07T06:15:36;302.33;;;121.97;;
9807;SDS011;4943;52.550;13.462;2023-05-07T06:18:04;299.57;;;121.63;;
9807;SDS011;4943;52.550;13.462;2023-05-07T06:20:32;298.10;;;122.17;;
9807;SDS011;4943;52.550;13.462;2023-05-07T06:23:00;300.07;;;122.93;;
9807;SDS011;4943;52.550;13.462;2023-05-07T06:25:28;297.93;;;124.13;;
9807;SDS011;4943;52.550;13.462;2023-05-07T06:27:57;299.23;;;124.80;;
9807;SDS011;4943;52.550;13.462;2023-05-07T06:30:25;300.83;;;123.67;;
9807;SDS011;4943;52.550;13.462;2023-05-07T06:32:54;298.37;;;121.57;;
9807;SDS011;4943;52.550;13.462;2023-05-07T06:35:22;301.20;;;125.03;;
9807;SDS011;4943;52.550;13.462;2023-05-07T06:37:50;301.20;;;127.13;;
9807;SDS011;4943;52.550;13.462;2023-05-07T06:40:18;304.07;;;127.60;;
9807;SDS011;4943;52.550;13.462;2023-05-07T06:42:46;303.43;;;125.40;;
9807;SDS011;4943;52.550;13.462;2023-05-07T06:45:15;305.27;;;132.70;;
9807;SDS011;4943;52.550;13.462;2023-05-07T06:47:44;306.07;;;130.47;;
9807;SDS011;4943;52.550;13.462;2023-05-07T06:50:12;305.53;;;132.67;;
9807;SDS011;4943;52.550;13.462;2023-05-07T06:52:42;307.77;;;131.93;;
9807;SDS011;4943;52.550;13.462;2023-05-07T06:55:10;307.10;;;136.20;;
9807;SDS011;4943;52.550;13.462;2023-05-07T06:57:38;309.77;;;138.80;;
9807;SDS011;4943;52.550;13.462;2023-05-07T07:00:07;307.97;;;137.37;;
9807;SDS011;4943;52.550;13.462;2023-05-07T07:02:38;310.17;;;139.60;;
9807;SDS011;4943;52.550;13.462;2023-05-07T07:05:06;305.03;;;137.17;;
9807;SDS011;4943;52.550;13.462;2023-05-07T07:07:35;310.13;;;138.00;;
9807;SDS011;4943;52.550;13.462;2023-05-07T07:10:03;307.50;;;136.70;;
9807;SDS011;4943;52.550;13.462;2023-05-07T07:12:31;302.93;;;133.80;;
9807;SDS011;4943;52.550;13.462;2023-05-07T07:14:59;305.80;;;129.77;;
9807;SDS011;4943;52.550;13.462;2023-05-07T07:17:28;299.27;;;128.33;;
9807;SDS011;4943;52.550;13.462;2023-05-07T07:19:58;300.77;;;128.97;;
9807;SDS011;4943;52.550;13.462;2023-05-07T07:22:26;297.40;;;122.77;;
9807;SDS011;4943;52.550;13.462;2023-05-07T07:24:53;299.57;;;124.77;;
9807;SDS011;4943;52.550;13.462;2023-05-07T07:27:22;299.20;;;122.97;;
9807;SDS011;4943;52.550;13.462;2023-05-07T07:29:50;300.10;;;126.80;;
9807;SDS011;4943;52.550;13.462;2023-05-07T07:32:18;299.57;;;126.60;;
9807;SDS011;4943;52.550;13.462;2023-05-07T07:34:46;301.57;;;131.33;;
9807;SDS011;4943;52.550;13.462;2023-05-07T07:37:15;299.33;;;125.97;;
9807;SDS011;4943;52.550;13.462;2023-05-07T07:39:43;297.00;;;123.97;;
9807;SDS011;4943;52.550;13.462;2023-05-07T07:42:11;298.47;;;128.40;;
9807;SDS011;4943;52.550;13.462;2023-05-07T07:44:39;303.40;;;130.50;;
9807;SDS011;4943;52.550;13.462;2023-05-07T07:47:07;304.03;;;132.27;;
9807;SDS011;4943;52.550;13.462;2023-05-07T07:49:35;301.93;;;128.47;;
9807;SDS011;4943;52.550;13.462;2023-05-07T07:52:03;302.03;;;131.60;;
9807;SDS011;4943;52.550;13.462;2023-05-07T07:54:32;300.33;;;131.13;;
9807;SDS011;4943;52.550;13.462;2023-05-07T07:57:00;299.57;;;130.10;;
9807;SDS011;4943;52.550;13.462;2023-05-07T07:59:28;297.77;;;126.87;;
9807;SDS011;4943;52.550;13.462;2023-05-07T08:01:56;296.93;;;126.13;;
9807;SDS011;4943;52.550;13.462;2023-05-07T08:04:24;299.97;;;128.83;;
9807;SDS011;4943;52.550;13.462;2023-05-07T08:06:52;299.57;;;128.30;;
9807;SDS011;4943;52.550;13.462;2023-05-07T08:09:22;300.30;;;128.53;;
9807;SDS011;4943;52.550;13.462;2023-05-07T08:11:51;299.27;;;127.30;;
9807;SDS011;4943;52.550;13.462;2023-05-07T08:14:19;301.53;;;131.57;;
9807;SDS011;4943;52.550;13.462;2023-05-07T08:16:47;300.23;;;130.23;;
9807;SDS011;4943;52.550;13.462;2023-05-07T08:19:16;301.77;;;131.30;;
9807;SDS011;4943;52.550;13.462;2023-05-07T08:21:44;300.30;;;132.00;;
9807;SDS011;4943;52.550;13.462;2023-05-07T08:24:14;301.03;;;129.87;;
9807;SDS011;4943;52.550;13.462;2023-05-07T08:26:42;301.63;;;130.03;;
9807;SDS011;4943;52.550;13.462;2023-05-07T08:29:13;302.63;;;129.50;;
9807;SDS011;4943;52.550;13.462;2023-05-07T08:31:41;304.23;;;137.63;;
9807;SDS011;4943;52.550;13.462;2023-05-07T08:34:09;306.13;;;136.13;;
9807;SDS011;4943;52.550;13.462;2023-05-07T08:36:37;306.87;;;138.70;;
9807;SDS011;4943;52.550;13.462;2023-05-07T08:39:07;309.10;;;142.87;;
9807;SDS011;4943;52.550;13.462;2023-05-07T08:41:36;311.90;;;142.27;;
9807;SDS011;4943;52.550;13.462;2023-05-07T08:44:03;312.17;;;146.10;;
9807;SDS011;4943;52.550;13.462;2023-05-07T08:46:41;318.27;;;156.63;;
9807;SDS011;4943;52.550;13.462;2023-05-07T08:49:09;320.50;;;163.90;;
9807;SDS011;4943;52.550;13.462;2023-05-07T08:51:38;319.77;;;165.67;;
9807;SDS011;4943;52.550;13.462;2023-05-07T08:54:06;320.13;;;163.83;;
9807;SDS011;4943;52.550;13.462;2023-05-07T08:56:34;329.87;;;177.20;;
9807;SDS011;4943;52.550;13.462;2023-05-07T08:59:02;332.63;;;186.07;;
9807;SDS011;4943;52.550;13.462;2023-05-07T09:01:30;333.73;;;194.63;;
9807;SDS011;4943;52.550;13.462;2023-05-07T09:04:00;337.80;;;204.37;;
9807;SDS011;4943;52.550;13.462;2023-05-07T09:06:28;338.60;;;209.03;;
9807;SDS011;4943;52.550;13.462;2023-05-07T09:08:56;347.63;;;222.23;;
9807;SDS011;4943;52.550;13.462;2023-05-07T09:11:27;344.17;;;223.17;;
9807;SDS011;4943;52.550;13.462;2023-05-07T09:13:55;347.97;;;234.00;;
9807;SDS011;4943;52.550;13.462;2023-05-07T09:16:28;346.03;;;229.07;;
9807;SDS011;4943;52.550;13.462;2023-05-07T09:18:57;350.30;;;239.23;;
9807;SDS011;4943;52.550;13.462;2023-05-07T09:21:27;352.47;;;243.67;;
9807;SDS011;4943;52.550;13.462;2023-05-07T09:23:55;354.90;;;252.83;;
9807;SDS011;4943;52.550;13.462;2023-05-07T09:26:23;355.37;;;253.67;;
9807;SDS011;4943;52.550;13.462;2023-05-07T09:28:54;352.87;;;250.73;;
9807;SDS011;4943;52.550;13.462;2023-05-07T09:31:22;351.80;;;245.43;;
9807;SDS011;4943;52.550;13.462;2023-05-07T09:33:52;347.47;;;240.93;;
9807;SDS011;4943;52.550;13.462;2023-05-07T09:36:23;347.43;;;239.07;;
9807;SDS011;4943;52.550;13.462;2023-05-07T09:38:51;346.27;;;225.43;;
9807;SDS011;4943;52.550;13.462;2023-05-07T09:41:19;347.87;;;230.20;;
9807;SDS011;4943;52.550;13.462;2023-05-07T09:43:47;341.83;;;223.60;;
9807;SDS011;4943;52.550;13.462;2023-05-07T09:46:28;346.07;;;233.30;;
9807;SDS011;4943;52.550;13.462;2023-05-07T09:48:58;344.90;;;231.70;;
9807;SDS011;4943;52.550;13.462;2023-05-07T09:51:30;342.47;;;230.43;;
9807;SDS011;4943;52.550;13.462;2023-05-07T09:54:01;345.03;;;228.67;;
9807;SDS011;4943;52.550;13.462;2023-05-07T09:56:31;342.17;;;226.80;;
9807;SDS011;4943;52.550;13.462;2023-05-07T09:59:00;340.33;;;222.40;;
9807;SDS011;4943;52.550;13.462;2023-05-07T10:01:30;338.73;;;218.20;;
9807;SDS011;4943;52.550;13.462;2023-05-07T10:04:01;344.10;;;225.60;;
9807;SDS011;4943;52.550;13.462;2023-05-07T10:06:31;344.20;;;224.10;;
9807;SDS011;4943;52.550;13.462;2023-05-07T10:08:59;346.10;;;234.53;;
9807;SDS011;4943;52.550;13.462;2023-05-07T10:11:28;344.77;;;234.53;;
9807;SDS011;4943;52.550;13.462;2023-05-07T10:13:56;347.23;;;240.70;;
9807;SDS011;4943;52.550;13.462;2023-05-07T10:16:24;348.57;;;245.70;;
9807;SDS011;4943;52.550;13.462;2023-05-07T10:18:54;350.30;;;246.10;;
9807;SDS011;4943;52.550;13.462;2023-05-07T10:21:23;352.77;;;255.10;;
9807;SDS011;4943;52.550;13.462;2023-05-07T10:23:56;354.93;;;261.07;;
9807;SDS011;4943;52.550;13.462;2023-05-07T10:26:27;358.17;;;266.65;;
9807;SDS011;4943;52.550;13.462;2023-05-07T10:28:58;361.05;;;275.70;;
9807;SDS011;4943;52.550;13.462;2023-05-07T10:31:36;366.17;;;293.38;;
9807;SDS011;4943;52.550;13.462;2023-05-07T10:34:23;369.00;;;292.10;;
9807;SDS011;4943;52.550;13.462;2023-05-07T10:36:55;372.25;;;306.52;;
9807;SDS011;4943;52.550;13.462;2023-05-07T10:39:25;377.48;;;320.83;;
9807;SDS011;4943;52.550;13.462;2023-05-07T10:41:54;379.63;;;324.48;;
9807;SDS011;4943;52.550;13.462;2023-05-07T10:44:25;379.33;;;328.83;;
9807;SDS011;4943;52.550;13.462;2023-05-07T10:47:04;380.83;;;331.15;;
9807;SDS011;4943;52.550;13.462;2023-05-07T10:49:37;377.95;;;323.92;;
9807;SDS011;4943;52.550;13.462;2023-05-07T10:52:40;374.40;;;315.83;;
9807;SDS011;4943;52.550;13.462;2023-05-07T10:55:21;378.05;;;320.20;;
9807;SDS011;4943;52.550;13.462;2023-05-07T10:57:51;373.15;;;312.90;;
9807;SDS011;4943;52.550;13.462;2023-05-07T11:03:10;371.77;;;304.25;;
9807;SDS011;4943;52.550;13.462;2023-05-07T11:05:38;372.25;;;307.67;;
9807;SDS011;4943;52.550;13.462;2023-05-07T11:08:08;375.13;;;308.00;;
9807;SDS011;4943;52.550;13.462;2023-05-07T11:10:49;379.17;;;326.63;;
9807;SDS011;4943;52.550;13.462;2023-05-07T11:13:40;374.33;;;322.67;;
9807;SDS011;4943;52.550;13.462;2023-05-07T11:16:16;375.77;;;311.70;;
9807;SDS011;4943;52.550;13.462;2023-05-07T11:18:46;372.23;;;314.92;;
9807;SDS011;4943;52.550;13.462;2023-05-07T11:24:01;375.52;;;318.05;;
9807;SDS011;4943;52.550;13.462;2023-05-07T11:26:31;378.42;;;328.48;;
9807;SDS011;4943;52.550;13.462;2023-05-07T11:29:11;375.60;;;322.83;;
9807;SDS011;4943;52.550;13.462;2023-05-07T11:31:40;386.80;;;344.05;;
9807;SDS011;4943;52.550;13.462;2023-05-07T11:34:08;395.05;;;353.35;;
9807;SDS011;4943;52.550;13.462;2023-05-07T11:36:41;393.80;;;352.30;;
9807;SDS011;4943;52.550;13.462;2023-05-07T11:39:24;392.13;;;350.33;;
9807;SDS011;4943;52.550;13.462;2023-05-07T11:41:56;398.65;;;357.50;;
9807;SDS011;4943;52.550;13.462;2023-05-07T11:44:24;410.50;;;368.55;;
9807;SDS011;4943;52.550;13.462;2023-05-07T11:46:53;415.88;;;373.95;;
9807;SDS011;4943;52.550;13.462;2023-05-07T11:49:21;424.25;;;381.02;;
9807;SDS011;4943;52.550;13.462;2023-05-07T11:51:52;419.88;;;376.75;;
9807;SDS011;4943;52.550;13.462;2023-05-07T11:54:21;426.88;;;382.92;;
9807;SDS011;4943;52.550;13.462;2023-05-07T11:56:50;431.88;;;387.73;;
9807;SDS011;4943;52.550;13.462;2023-05-07T11:59:18;423.77;;;379.98;;
9807;SDS011;4943;52.550;13.462;2023-05-07T12:01:46;424.30;;;380.75;;
9807;SDS011;4943;52.550;13.462;2023-05-07T12:04:18;422.25;;;378.50;;
9807;SDS011;4943;52.550;13.462;2023-05-07T12:06:47;414.10;;;370.65;;
9807;SDS011;4943;52.550;13.462;2023-05-07T12:09:17;413.48;;;370.38;;
9807;SDS011;4943;52.550;13.462;2023-05-07T12:11:45;414.08;;;370.70;;
9807;SDS011;4943;52.550;13.462;2023-05-07T12:14:15;410.67;;;367.45;;
9807;SDS011;4943;52.550;13.462;2023-05-07T12:16:43;399.88;;;357.35;;
9807;SDS011;4943;52.550;13.462;2023-05-07T12:19:12;402.85;;;359.70;;
9807;SDS011;4943;52.550;13.462;2023-05-07T12:21:41;398.05;;;355.55;;
9807;SDS011;4943;52.550;13.462;2023-05-07T12:24:09;391.92;;;348.90;;
9807;SDS011;4943;52.550;13.462;2023-05-07T12:26:37;385.98;;;343.67;;
9807;SDS011;4943;52.550;13.462;2023-05-07T12:29:06;390.33;;;347.75;;
9807;SDS011;4943;52.550;13.462;2023-05-07T12:31:36;381.10;;;338.23;;
9807;SDS011;4943;52.550;13.462;2023-05-07T12:34:07;374.48;;;330.83;;
9807;SDS011;4943;52.550;13.462;2023-05-07T12:36:38;384.15;;;341.95;;
9807;SDS011;4943;52.550;13.462;2023-05-07T12:39:07;380.23;;;332.40;;
9807;SDS011;4943;52.550;13.462;2023-05-07T12:41:36;381.55;;;340.52;;
9807;SDS011;4943;52.550;13.462;2023-05-07T12:44:21;381.98;;;339.13;;
9807;SDS011;4943;52.550;13.462;2023-05-07T12:46:51;382.23;;;338.63;;
9807;SDS011;4943;52.550;13.462;2023-05-07T12:49:19;376.50;;;332.73;;
9807;SDS011;4943;52.550;13.462;2023-05-07T12:51:50;388.35;;;346.90;;
9807;SDS011;4943;52.550;13.462;2023-05-07T12:54:27;373.85;;;333.38;;
9807;SDS011;4943;52.550;13.462;2023-05-07T12:57:00;390.25;;;345.92;;
9807;SDS011;4943;52.550;13.462;2023-05-07T12:59:32;374.05;;;333.23;;
9807;SDS011;4943;52.550;13.462;2023-05-07T13:02:02;380.05;;;337.30;;
9807;SDS011;4943;52.550;13.462;2023-05-07T13:04:30;382.67;;;338.42;;
9807;SDS011;4943;52.550;13.462;2023-05-07T13:06:59;387.30;;;344.75;;
9807;SDS011;4943;52.550;13.462;2023-05-07T13:09:27;393.00;;;350.27;;
9807;SDS011;4943;52.550;13.462;2023-05-07T13:11:55;387.90;;;345.45;;
9807;SDS011;4943;52.550;13.462;2023-05-07T13:14:26;386.98;;;344.58;;
9807;SDS011;4943;52.550;13.462;2023-05-07T13:16:54;389.08;;;346.50;;
9807;SDS011;4943;52.550;13.462;2023-05-07T13:19:23;400.80;;;357.90;;
9807;SDS011;4943;52.550;13.462;2023-05-07T13:21:51;408.15;;;365.55;;
9807;SDS011;4943;52.550;13.462;2023-05-07T13:24:20;403.73;;;361.33;;
9807;SDS011;4943;52.550;13.462;2023-05-07T13:26:48;406.55;;;363.67;;
9807;SDS011;4943;52.550;13.462;2023-05-07T13:29:16;412.52;;;369.45;;
9807;SDS011;4943;52.550;13.462;2023-05-07T13:31:44;411.60;;;368.33;;
9807;SDS011;4943;52.550;13.462;2023-05-07T13:34:15;410.15;;;367.15;;
9807;SDS011;4943;52.550;13.462;2023-05-07T13:36:44;421.27;;;377.48;;
9807;SDS011;4943;52.550;13.462;2023-05-07T13:39:12;415.88;;;372.55;;
9807;SDS011;4943;52.550;13.462;2023-05-07T13:41:40;428.05;;;384.40;;
9807;SDS011;4943;52.550;13.462;2023-05-07T13:44:08;434.92;;;391.08;;
9807;SDS011;4943;52.550;13.462;2023-05-07T13:46:36;420.25;;;376.70;;
9807;SDS011;4943;52.550;13.462;2023-05-07T13:49:04;420.80;;;377.38;;
9807;SDS011;4943;52.550;13.462;2023-05-07T13:51:32;418.80;;;375.33;;
9807;SDS011;4943;52.550;13.462;2023-05-07T13:54:02;423.73;;;380.33;;
9807;SDS011;4943;52.550;13.462;2023-05-07T13:56:30;432.58;;;388.75;;
9807;SDS011;4943;52.550;13.462;2023-05-07T13:58:58;433.98;;;390.10;;
9807;SDS011;4943;52.550;13.462;2023-05-07T14:01:26;431.17;;;387.42;;
9807;SDS011;4943;52.550;13.462;2023-05-07T14:03:55;427.17;;;383.48;;
9807;SDS011;4943;52.550;13.462;2023-05-07T14:06:24;416.48;;;373.13;;
9807;SDS011;4943;52.550;13.462;2023-05-07T14:08:52;422.92;;;379.60;;
9807;SDS011;4943;52.550;13.462;2023-05-07T14:11:21;422.35;;;379.35;;
9807;SDS011;4943;52.550;13.462;2023-05-07T14:13:49;430.67;;;387.17;;
9807;SDS011;4943;52.550;13.462;2023-05-07T14:16:17;441.52;;;398.92;;
9807;SDS011;4943;52.550;13.462;2023-05-07T14:18:45;463.50;;;419.42;;
9807;SDS011;4943;52.550;13.462;2023-05-07T14:21:13;464.48;;;419.48;;
9807;SDS011;4943;52.550;13.462;2023-05-07T14:23:41;480.13;;;434.83;;
9807;SDS011;4943;52.550;13.462;2023-05-07T14:26:09;477.85;;;432.63;;
9807;SDS011;4943;52.550;13.462;2023-05-07T14:28:39;476.08;;;430.90;;
9807;SDS011;4943;52.550;13.462;2023-05-07T14:31:12;461.10;;;416.30;;